CKH3 weather

Debden Airport
Debden, Saskatchewan, Canada

Public forecast

Using degrees Celsius for public forecast. Weather courtesy of forecast.io.

Closest aviation weather report (METAR) to Debden Airport

Closest report is Prince Albert Glass Field, 47.4 nm (87.8 km) ESE. Retrieved 2019/10/21 01:00 UTC (53 minutes ago):

CYPA 210100Z 00000KT 15SM FEW035 M01/M04 A2988 RMK SC2 SLP143

Closest aviation forecast (TAF) to Debden Airport

Closest forecast is Prince Albert Glass Field, 47.4 nm (87.8 km) ESE. Retrieved 2019-10-21 01:42 UTC (11 minutes ago):

TAF CYPA 210038Z 2101/2113 33006KT P6SM FEW040 TEMPO 2101/2103 BKN040 FM210300 VRB03KT P6SM BKN040 PROB30 2108/2113 1/2SM FZFG VV002 RMK NXT FCST BY 210700Z